sensor_id;sensor_type;location;lat;lon;timestamp;P1;durP1;ratioP1;P2;durP2;ratioP2
49858;SDS011;35756;52.346;13.622;2022-10-31T07:11:51;17.75;;;10.13;;
49858;SDS011;35756;52.346;13.622;2022-10-31T07:18:09;19.73;;;9.80;;
49858;SDS011;35756;52.346;13.622;2022-10-31T07:57:24;26.58;;;13.75;;
49858;SDS011;35756;52.346;13.622;2022-10-31T08:07:19;29.38;;;13.13;;
49858;SDS011;35756;52.346;13.622;2022-10-31T08:13:48;22.40;;;11.55;;
49858;SDS011;35756;52.346;13.622;2022-10-31T08:27:47;17.80;;;10.35;;
49858;SDS011;35756;52.346;13.622;2022-10-31T09:13:14;20.35;;;12.73;;
49858;SDS011;35756;52.346;13.622;2022-10-31T16:41:01;26.02;;;14.75;;
49858;SDS011;35756;52.346;13.622;2022-10-31T16:43:26;27.80;;;14.80;;
49858;SDS011;35756;52.346;13.622;2022-10-31T16:45:52;25.63;;;14.35;;
49858;SDS011;35756;52.346;13.622;2022-10-31T16:48:18;29.67;;;15.43;;
49858;SDS011;35756;52.346;13.622;2022-10-31T16:50:46;24.48;;;14.55;;
49858;SDS011;35756;52.346;13.622;2022-10-31T16:53:12;20.25;;;13.07;;
49858;SDS011;35756;52.346;13.622;2022-10-31T16:55:44;23.55;;;14.55;;
49858;SDS011;35756;52.346;13.622;2022-10-31T16:58:18;25.13;;;15.27;;
49858;SDS011;35756;52.346;13.622;2022-10-31T17:00:47;27.98;;;14.38;;
49858;SDS011;35756;52.346;13.622;2022-10-31T17:03:12;22.50;;;14.77;;
49858;SDS011;35756;52.346;13.622;2022-10-31T17:05:38;25.95;;;15.23;;
49858;SDS011;35756;52.346;13.622;2022-10-31T17:08:04;21.33;;;12.30;;
49858;SDS011;35756;52.346;13.622;2022-10-31T17:10:29;26.58;;;15.43;;
49858;SDS011;35756;52.346;13.622;2022-10-31T17:12:54;24.45;;;14.40;;
49858;SDS011;35756;52.346;13.622;2022-10-31T17:15:23;27.75;;;15.40;;
49858;SDS011;35756;52.346;13.622;2022-10-31T17:17:49;23.88;;;14.80;;
49858;SDS011;35756;52.346;13.622;2022-10-31T17:20:16;21.80;;;15.50;;
49858;SDS011;35756;52.346;13.622;2022-10-31T17:22:47;28.40;;;16.95;;
49858;SDS011;35756;52.346;13.622;2022-10-31T17:25:13;27.85;;;17.52;;
49858;SDS011;35756;52.346;13.622;2022-10-31T17:27:41;31.30;;;16.85;;
49858;SDS011;35756;52.346;13.622;2022-10-31T17:30:07;30.10;;;17.90;;
49858;SDS011;35756;52.346;13.622;2022-10-31T17:32:32;25.48;;;17.40;;
49858;SDS011;35756;52.346;13.622;2022-10-31T17:34:57;29.80;;;17.50;;
49858;SDS011;35756;52.346;13.622;2022-10-31T17:37:23;28.73;;;17.30;;
49858;SDS011;35756;52.346;13.622;2022-10-31T17:39:48;30.92;;;18.33;;
49858;SDS011;35756;52.346;13.622;2022-10-31T17:42:13;33.22;;;21.10;;
49858;SDS011;35756;52.346;13.622;2022-10-31T17:44:39;33.97;;;21.17;;
49858;SDS011;35756;52.346;13.622;2022-10-31T17:47:04;36.67;;;21.50;;
49858;SDS011;35756;52.346;13.622;2022-10-31T17:49:30;33.53;;;19.73;;
49858;SDS011;35756;52.346;13.622;2022-10-31T17:51:55;30.25;;;18.40;;
49858;SDS011;35756;52.346;13.622;2022-10-31T17:54:20;32.45;;;20.30;;
49858;SDS011;35756;52.346;13.622;2022-10-31T17:56:47;33.95;;;19.73;;
49858;SDS011;35756;52.346;13.622;2022-10-31T17:59:12;35.33;;;19.48;;
49858;SDS011;35756;52.346;13.622;2022-10-31T18:01:37;29.25;;;19.02;;
49858;SDS011;35756;52.346;13.622;2022-10-31T18:04:03;30.77;;;20.23;;
49858;SDS011;35756;52.346;13.622;2022-10-31T18:06:28;32.00;;;20.63;;
49858;SDS011;35756;52.346;13.622;2022-10-31T18:08:54;33.60;;;21.15;;
49858;SDS011;35756;52.346;13.622;2022-10-31T18:11:22;36.92;;;21.60;;
49858;SDS011;35756;52.346;13.622;2022-10-31T18:13:52;31.55;;;22.42;;
49858;SDS011;35756;52.346;13.622;2022-10-31T18:16:19;44.25;;;22.63;;
49858;SDS011;35756;52.346;13.622;2022-10-31T18:18:48;39.60;;;22.20;;
49858;SDS011;35756;52.346;13.622;2022-10-31T18:21:14;36.47;;;22.48;;
49858;SDS011;35756;52.346;13.622;2022-10-31T18:23:40;31.00;;;20.88;;
49858;SDS011;35756;52.346;13.622;2022-10-31T18:26:05;32.38;;;22.25;;
49858;SDS011;35756;52.346;13.622;2022-10-31T18:28:30;36.05;;;22.58;;
49858;SDS011;35756;52.346;13.622;2022-10-31T18:30:59;47.65;;;30.20;;
49858;SDS011;35756;52.346;13.622;2022-10-31T18:33:24;43.00;;;27.98;;
49858;SDS011;35756;52.346;13.622;2022-10-31T18:35:50;48.30;;;28.83;;
49858;SDS011;35756;52.346;13.622;2022-10-31T18:38:15;46.13;;;29.10;;
49858;SDS011;35756;52.346;13.622;2022-10-31T18:40:40;48.85;;;29.13;;
49858;SDS011;35756;52.346;13.622;2022-10-31T18:43:05;44.35;;;27.17;;
49858;SDS011;35756;52.346;13.622;2022-10-31T18:45:31;47.65;;;30.75;;
49858;SDS011;35756;52.346;13.622;2022-10-31T18:47:56;45.83;;;28.23;;
49858;SDS011;35756;52.346;13.622;2022-10-31T18:50:21;44.75;;;27.05;;
49858;SDS011;35756;52.346;13.622;2022-10-31T18:52:47;41.47;;;27.45;;
49858;SDS011;35756;52.346;13.622;2022-10-31T18:55:13;39.95;;;26.05;;
49858;SDS011;35756;52.346;13.622;2022-10-31T18:57:38;40.78;;;26.48;;
49858;SDS011;35756;52.346;13.622;2022-10-31T19:00:04;45.63;;;27.30;;
49858;SDS011;35756;52.346;13.622;2022-10-31T19:02:30;38.92;;;25.40;;
49858;SDS011;35756;52.346;13.622;2022-10-31T19:04:55;37.13;;;24.20;;
49858;SDS011;35756;52.346;13.622;2022-10-31T19:07:21;38.22;;;24.27;;
49858;SDS011;35756;52.346;13.622;2022-10-31T19:09:46;39.58;;;24.45;;
49858;SDS011;35756;52.346;13.622;2022-10-31T19:12:11;41.78;;;24.35;;
49858;SDS011;35756;52.346;13.622;2022-10-31T19:14:36;36.33;;;23.83;;
49858;SDS011;35756;52.346;13.622;2022-10-31T19:17:02;34.22;;;23.13;;
49858;SDS011;35756;52.346;13.622;2022-10-31T19:19:27;40.40;;;25.17;;
49858;SDS011;35756;52.346;13.622;2022-10-31T19:21:52;42.83;;;25.95;;
49858;SDS011;35756;52.346;13.622;2022-10-31T19:24:18;39.85;;;25.42;;
49858;SDS011;35756;52.346;13.622;2022-10-31T19:26:43;48.78;;;27.05;;
49858;SDS011;35756;52.346;13.622;2022-10-31T19:29:08;42.80;;;26.42;;
49858;SDS011;35756;52.346;13.622;2022-10-31T19:31:34;40.55;;;25.98;;
49858;SDS011;35756;52.346;13.622;2022-10-31T19:34:00;46.53;;;28.77;;
49858;SDS011;35756;52.346;13.622;2022-10-31T19:36:26;45.85;;;29.85;;
49858;SDS011;35756;52.346;13.622;2022-10-31T19:38:52;50.22;;;31.38;;
49858;SDS011;35756;52.346;13.622;2022-10-31T19:41:18;53.25;;;29.60;;
49858;SDS011;35756;52.346;13.622;2022-10-31T19:43:47;44.03;;;27.48;;
49858;SDS011;35756;52.346;13.622;2022-10-31T19:46:13;46.15;;;29.80;;
49858;SDS011;35756;52.346;13.622;2022-10-31T19:48:40;58.13;;;31.90;;
49858;SDS011;35756;52.346;13.622;2022-10-31T19:51:06;53.47;;;30.92;;
49858;SDS011;35756;52.346;13.622;2022-10-31T19:53:33;53.15;;;31.63;;
49858;SDS011;35756;52.346;13.622;2022-10-31T19:55:59;51.42;;;29.75;;
49858;SDS011;35756;52.346;13.622;2022-10-31T19:58:24;45.15;;;29.33;;
49858;SDS011;35756;52.346;13.622;2022-10-31T20:00:52;46.08;;;29.88;;
49858;SDS011;35756;52.346;13.622;2022-10-31T20:03:18;49.75;;;30.55;;
49858;SDS011;35756;52.346;13.622;2022-10-31T20:05:43;43.70;;;28.05;;
49858;SDS011;35756;52.346;13.622;2022-10-31T20:08:13;43.67;;;28.98;;
49858;SDS011;35756;52.346;13.622;2022-10-31T20:10:39;44.53;;;27.80;;
49858;SDS011;35756;52.346;13.622;2022-10-31T20:13:05;47.47;;;27.42;;
49858;SDS011;35756;52.346;13.622;2022-10-31T20:15:30;47.75;;;29.17;;
49858;SDS011;35756;52.346;13.622;2022-10-31T20:17:55;45.50;;;26.40;;
49858;SDS011;35756;52.346;13.622;2022-10-31T20:20:21;47.42;;;28.85;;
49858;SDS011;35756;52.346;13.622;2022-10-31T20:22:46;49.90;;;29.85;;
49858;SDS011;35756;52.346;13.622;2022-10-31T20:25:13;47.53;;;29.02;;
49858;SDS011;35756;52.346;13.622;2022-10-31T20:27:39;48.70;;;28.45;;
49858;SDS011;35756;52.346;13.622;2022-10-31T20:30:04;49.47;;;28.13;;
49858;SDS011;35756;52.346;13.622;2022-10-31T20:32:30;45.45;;;28.17;;
49858;SDS011;35756;52.346;13.622;2022-10-31T20:34:55;50.25;;;30.45;;
49858;SDS011;35756;52.346;13.622;2022-10-31T20:37:21;46.67;;;30.65;;
49858;SDS011;35756;52.346;13.622;2022-10-31T20:39:46;50.65;;;30.83;;
49858;SDS011;35756;52.346;13.622;2022-10-31T20:42:11;46.60;;;29.88;;
49858;SDS011;35756;52.346;13.622;2022-10-31T20:44:37;46.75;;;30.65;;
49858;SDS011;35756;52.346;13.622;2022-10-31T20:47:02;48.17;;;29.88;;
49858;SDS011;35756;52.346;13.622;2022-10-31T20:49:28;51.05;;;31.13;;
49858;SDS011;35756;52.346;13.622;2022-10-31T20:51:53;61.72;;;34.72;;
49858;SDS011;35756;52.346;13.622;2022-10-31T20:54:19;55.17;;;32.10;;
49858;SDS011;35756;52.346;13.622;2022-10-31T20:56:44;51.35;;;33.22;;
49858;SDS011;35756;52.346;13.622;2022-10-31T20:59:09;53.50;;;33.38;;
49858;SDS011;35756;52.346;13.622;2022-10-31T21:01:36;56.30;;;32.20;;
49858;SDS011;35756;52.346;13.622;2022-10-31T21:04:02;58.35;;;34.40;;
49858;SDS011;35756;52.346;13.622;2022-10-31T21:06:28;62.05;;;36.45;;
49858;SDS011;35756;52.346;13.622;2022-10-31T21:08:54;58.40;;;36.15;;
49858;SDS011;35756;52.346;13.622;2022-10-31T21:11:20;65.85;;;36.22;;
49858;SDS011;35756;52.346;13.622;2022-10-31T21:13:47;50.40;;;32.95;;
49858;SDS011;35756;52.346;13.622;2022-10-31T21:16:13;52.88;;;33.88;;
49858;SDS011;35756;52.346;13.622;2022-10-31T21:18:43;59.70;;;33.65;;
49858;SDS011;35756;52.346;13.622;2022-10-31T21:21:14;58.17;;;34.22;;
49858;SDS011;35756;52.346;13.622;2022-10-31T21:23:39;58.00;;;33.70;;
49858;SDS011;35756;52.346;13.622;2022-10-31T21:26:06;51.35;;;32.13;;
49858;SDS011;35756;52.346;13.622;2022-10-31T21:28:32;52.40;;;34.47;;
49858;SDS011;35756;52.346;13.622;2022-10-31T21:30:58;52.03;;;32.65;;
49858;SDS011;35756;52.346;13.622;2022-10-31T21:33:24;55.08;;;33.72;;
49858;SDS011;35756;52.346;13.622;2022-10-31T21:35:49;60.88;;;36.15;;
49858;SDS011;35756;52.346;13.622;2022-10-31T21:38:15;60.78;;;34.95;;
49858;SDS011;35756;52.346;13.622;2022-10-31T21:40:40;54.55;;;32.85;;
49858;SDS011;35756;52.346;13.622;2022-10-31T21:43:06;56.58;;;32.92;;
49858;SDS011;35756;52.346;13.622;2022-10-31T21:45:31;49.05;;;30.98;;
49858;SDS011;35756;52.346;13.622;2022-10-31T21:47:57;54.97;;;32.33;;
49858;SDS011;35756;52.346;13.622;2022-10-31T21:50:22;52.97;;;31.70;;
49858;SDS011;35756;52.346;13.622;2022-10-31T21:52:48;58.38;;;32.45;;
49858;SDS011;35756;52.346;13.622;2022-10-31T21:55:13;57.85;;;33.95;;
49858;SDS011;35756;52.346;13.622;2022-10-31T21:57:38;48.78;;;31.77;;
49858;SDS011;35756;52.346;13.622;2022-10-31T22:00:04;54.47;;;33.28;;
49858;SDS011;35756;52.346;13.622;2022-10-31T22:02:32;44.78;;;30.27;;
49858;SDS011;35756;52.346;13.622;2022-10-31T22:04:58;50.90;;;30.98;;
49858;SDS011;35756;52.346;13.622;2022-10-31T22:07:23;46.00;;;31.08;;
49858;SDS011;35756;52.346;13.622;2022-10-31T22:09:48;43.75;;;29.13;;
49858;SDS011;35756;52.346;13.622;2022-10-31T22:12:13;50.13;;;30.67;;
49858;SDS011;35756;52.346;13.622;2022-10-31T22:14:39;47.95;;;30.65;;
49858;SDS011;35756;52.346;13.622;2022-10-31T22:17:04;54.72;;;31.35;;
49858;SDS011;35756;52.346;13.622;2022-10-31T22:19:30;49.70;;;28.85;;
49858;SDS011;35756;52.346;13.622;2022-10-31T22:21:55;48.65;;;28.13;;
49858;SDS011;35756;52.346;13.622;2022-10-31T22:24:20;42.28;;;27.55;;
49858;SDS011;35756;52.346;13.622;2022-10-31T22:26:46;44.67;;;27.02;;
49858;SDS011;35756;52.346;13.622;2022-10-31T22:29:12;47.25;;;27.90;;
49858;SDS011;35756;52.346;13.622;2022-10-31T22:31:39;40.15;;;26.75;;
49858;SDS011;35756;52.346;13.622;2022-10-31T22:34:06;51.03;;;29.38;;
49858;SDS011;35756;52.346;13.622;2022-10-31T22:36:32;42.55;;;27.85;;
49858;SDS011;35756;52.346;13.622;2022-10-31T22:38:57;44.55;;;28.00;;
49858;SDS011;35756;52.346;13.622;2022-10-31T22:41:24;41.70;;;27.27;;
49858;SDS011;35756;52.346;13.622;2022-10-31T22:43:50;48.45;;;28.42;;
49858;SDS011;35756;52.346;13.622;2022-10-31T22:46:20;47.10;;;27.08;;
49858;SDS011;35756;52.346;13.622;2022-10-31T22:48:50;39.17;;;26.17;;
49858;SDS011;35756;52.346;13.622;2022-10-31T22:51:18;46.50;;;27.70;;
49858;SDS011;35756;52.346;13.622;2022-10-31T22:53:47;46.90;;;27.48;;
49858;SDS011;35756;52.346;13.622;2022-10-31T22:56:14;41.72;;;27.23;;
49858;SDS011;35756;52.346;13.622;2022-10-31T22:58:41;44.30;;;26.83;;
49858;SDS011;35756;52.346;13.622;2022-10-31T23:01:10;45.55;;;27.33;;
49858;SDS011;35756;52.346;13.622;2022-10-31T23:03:43;45.90;;;27.63;;
49858;SDS011;35756;52.346;13.622;2022-10-31T23:06:10;47.30;;;27.92;;
49858;SDS011;35756;52.346;13.622;2022-10-31T23:08:36;47.83;;;27.67;;
49858;SDS011;35756;52.346;13.622;2022-10-31T23:11:11;48.75;;;28.40;;
49858;SDS011;35756;52.346;13.622;2022-10-31T23:13:39;53.53;;;28.60;;
49858;SDS011;35756;52.346;13.622;2022-10-31T23:18:48;42.92;;;25.85;;
49858;SDS011;35756;52.346;13.622;2022-10-31T23:21:13;53.20;;;28.52;;
49858;SDS011;35756;52.346;13.622;2022-10-31T23:23:56;56.88;;;30.67;;
49858;SDS011;35756;52.346;13.622;2022-10-31T23:26:22;44.17;;;26.40;;
49858;SDS011;35756;52.346;13.622;2022-10-31T23:29:05;44.88;;;26.25;;
49858;SDS011;35756;52.346;13.622;2022-10-31T23:31:31;54.83;;;29.55;;
49858;SDS011;35756;52.346;13.622;2022-10-31T23:33:56;53.20;;;30.30;;
49858;SDS011;35756;52.346;13.622;2022-10-31T23:36:21;58.72;;;30.50;;
49858;SDS011;35756;52.346;13.622;2022-10-31T23:38:47;64.32;;;34.03;;
49858;SDS011;35756;52.346;13.622;2022-10-31T23:41:14;54.38;;;31.27;;
49858;SDS011;35756;52.346;13.622;2022-10-31T23:43:40;45.22;;;27.27;;
49858;SDS011;35756;52.346;13.622;2022-10-31T23:46:05;56.85;;;30.55;;
49858;SDS011;35756;52.346;13.622;2022-10-31T23:48:30;52.05;;;30.80;;
49858;SDS011;35756;52.346;13.622;2022-10-31T23:50:55;63.00;;;34.67;;
49858;SDS011;35756;52.346;13.622;2022-10-31T23:53:21;59.22;;;32.78;;
49858;SDS011;35756;52.346;13.622;2022-10-31T23:55:46;56.75;;;31.50;;
49858;SDS011;35756;52.346;13.622;2022-10-31T23:58:11;52.13;;;29.20;;
